Etusivu
METAR-TAF:

METAR-TAF

Lentoasemat :

Lampedusan lentoasema

Lampedusa, Italia

Leveyspiiri: 35-30N, Pituuspiiri: 012-36E, korkeus merenpinnasta: 16 m

Tämänhetkinen sää

Tämä raportti tehtiin 30 minuuttia sitten, kello 13.50 UTC
Tuuli 13 kn lännestä/lounaasta
Lämpötila 24°C
Kosteus 54%
Ilmanpaine 1013 hPa
Näkyvyys 10 km tai enemmän

METAR: LICD 061350Z AUTO 25013KT 9999 NCD 24/14 Q1013

Aika: 16:20 (14:20 UTC)

Sääennuste

Tämä raportti tehtiin 1 tunti ja 38 minuuttia sitten, kello 12.42 UTC
Ennuste voimassa 06. päivästä klo 12 UTC - 07. päivään klo 12 UTC
Tuuli 14 kn lännestä
Näkyvyys 10 km tai enemmän
Muutamia pilviä 2000 ft:n korkeudessa
Tulossa
07. päivästä klo 05 UTC - 07. päivään klo 07 UTC
Tuuli 18 kn etelästä

TAF: LICD 061242Z 0612/0712 28014KT 9999 FEW020 BECMG 0705/0707 18018KT

Säähavainnot ja -ennusteet yli 4000 lentoasemalta (METAR- ja TAF-raportit).

Käytössä olevat sääasemat on merkitty karttaan keltaisilla ja punaisilla pisteillä.

Aseta hiiri pisteen päälle nähdäksesi sääaseman nimen.

Klikkaa sitten nähdäksesi säähavainnot ja -ennusteet.

Kartan vaihtaminen: klikkaa mustalla rastilla varustettuja vihreitä pisteitä, niin voit zoomata sisään; viivalla varustettua vihreää pistettä, niin voit zoomata ulos tai vihreitä nuolia, niin pääset viereisille kartoille.


METAR-TAF: